Time;durP1;ratioP1;P1;durP2;ratioP2;P2;SDS_P1;SDS_P2;PMS_P1;PMS_P2;Temp;Humidity;BMP_temperature;BMP_pressure;BME280_temperature;BME280_humidity;BME280_pressure;Samples;Min_cycle;Max_cycle;Signal;HPM_P1;HPM_P2
2022/08/12 00:44:45;;;;;;;3.92;2.67;;;26.40;34.70;;;;;;4902219;29;20088;-77
2022/08/12 00:47:12;;;;;;;4.40;2.85;;;26.40;34.70;;;;;;4916776;29;20123;-77
2022/08/12 00:49:40;;;;;;;4.15;3.03;;;26.40;34.60;;;;;;4916109;29;20033;-77
2022/08/12 00:52:09;;;;;;;3.47;2.50;;;26.30;34.60;;;;;;4901866;29;20029;-77
2022/08/12 00:54:51;;;;;;;3.88;3.05;;;26.30;34.60;;;;;;4901511;29;20028;-78
2022/08/12 00:57:19;;;;;;;3.88;2.63;;;26.30;34.90;;;;;;4916546;29;20503;-78
2022/08/12 00:59:51;;;;;;;3.63;3.00;;;26.30;35.00;;;;;;4901735;29;20032;-78
2022/08/12 01:02:35;;;;;;;4.35;2.75;;;26.30;35.20;;;;;;4901743;29;20044;-78
2022/08/12 01:11:31;;;;;;;4.28;2.50;;;26.10;35.30;;;;;;4897660;29;20047;-77
2022/08/12 01:14:01;;;;;;;4.57;2.95;;;26.00;35.20;;;;;;4924127;29;20122;-78
2022/08/12 01:16:28;;;;;;;4.43;2.80;;;26.00;35.30;;;;;;4915939;29;20032;-77
2022/08/12 01:18:55;;;;;;;3.65;2.45;;;25.90;35.40;;;;;;4901549;29;20049;-78
2022/08/12 01:21:54;;;;;;;3.70;2.80;;;26.00;35.50;;;;;;4901348;29;20108;-77
2022/08/12 01:24:38;;;;;;;4.30;2.95;;;25.90;35.70;;;;;;4918805;29;20085;-77
2022/08/12 01:27:07;;;;;;;7.15;2.28;;;25.90;35.80;;;;;;4916076;29;20056;-77
2022/08/12 01:29:42;;;;;;;4.50;2.88;;;25.90;35.30;;;;;;4901336;29;20518;-77
2022/08/12 01:32:11;;;;;;;7.07;2.78;;;25.80;35.40;;;;;;4901366;29;20040;-77
2022/08/12 01:34:40;;;;;;;3.40;2.60;;;25.80;35.40;;;;;;4900846;29;20176;-77
2022/08/12 01:37:08;;;;;;;3.78;3.08;;;25.80;35.70;;;;;;4901112;29;20089;-77
2022/08/12 01:39:33;;;;;;;3.10;2.70;;;25.80;35.80;;;;;;4900968;29;20028;-77
2022/08/12 01:42:21;;;;;;;3.75;2.75;;;25.80;35.60;;;;;;4901424;29;20043;-77
2022/08/12 01:44:52;;;;;;;5.57;2.80;;;25.80;36.10;;;;;;4915455;29;20028;-77
2022/08/12 01:47:30;;;;;;;4.40;2.90;;;25.80;36.00;;;;;;4915512;29;20116;-77
2022/08/12 01:50:01;;;;;;;4.18;2.75;;;25.70;36.10;;;;;;4915298;29;20059;-77
2022/08/12 01:52:43;;;;;;;4.88;2.40;;;25.70;35.80;;;;;;4914862;29;20032;-77
2022/08/12 01:55:13;;;;;;;7.22;3.55;;;25.60;36.10;;;;;;4901142;29;20039;-77
2022/08/12 01:57:46;;;;;;;4.88;3.03;;;25.60;35.90;;;;;;4915345;29;20052;-77
2022/08/12 02:00:15;;;;;;;5.13;2.80;;;25.50;36.60;;;;;;4899221;29;20051;-78
2022/08/12 02:02:41;;;;;;;3.97;2.70;;;25.50;36.60;;;;;;4900321;29;20122;-77
2022/08/12 02:11:41;;;;;;;3.85;2.90;;;25.30;36.80;;;;;;4906219;29;20039;-77
2022/08/12 02:14:15;;;;;;;3.05;2.70;;;25.30;37.00;;;;;;4900583;29;20036;-77
2022/08/12 02:16:44;;;;;;;3.05;2.75;;;25.30;37.50;;;;;;4900546;29;20032;-77
2022/08/12 02:19:26;;;;;;;3.85;2.50;;;25.20;37.20;;;;;;4900481;29;20021;-77
2022/08/12 02:22:11;;;;;;;6.65;3.00;;;25.10;37.30;;;;;;4900645;29;20040;-77
2022/08/12 02:24:38;;;;;;;3.85;2.70;;;25.00;37.30;;;;;;4900677;29;20028;-77
2022/08/12 02:27:07;;;;;;;3.97;2.60;;;25.00;37.50;;;;;;4900797;29;20084;-77
2022/08/12 02:29:34;;;;;;;3.30;2.42;;;25.00;37.50;;;;;;4899707;29;20029;-77
2022/08/12 02:32:01;;;;;;;4.00;2.60;;;25.00;37.70;;;;;;4900205;29;20040;-77
2022/08/12 02:34:28;;;;;;;3.45;2.88;;;24.90;37.80;;;;;;4900349;29;20488;-77
2022/08/12 02:36:54;;;;;;;3.42;2.70;;;24.90;37.70;;;;;;4900305;29;20021;-77
2022/08/12 02:39:25;;;;;;;4.90;2.90;;;24.90;37.90;;;;;;4913661;29;20440;-77
2022/08/12 02:41:53;;;;;;;4.15;2.90;;;24.80;37.80;;;;;;4900407;29;20039;-77
2022/08/12 02:44:23;;;;;;;5.18;2.38;;;24.80;37.90;;;;;;4900309;29;20028;-77
2022/08/12 02:46:52;;;;;;;;;;;24.70;38.50;;;;;;4900440;29;20021;-77
2022/08/12 02:49:30;;;;;;;4.05;3.05;;;24.70;38.50;;;;;;4900027;29;19911;-77
2022/08/12 02:51:58;;;;;;;3.20;2.78;;;24.70;38.10;;;;;;4900178;29;20033;-77
2022/08/12 02:54:25;;;;;;;3.47;2.47;;;24.60;38.70;;;;;;4903227;29;20031;-77
2022/08/12 02:56:52;;;;;;;3.05;2.75;;;24.60;38.20;;;;;;4898856;29;20033;-77
2022/08/12 02:59:25;;;;;;;3.28;2.65;;;24.60;38.50;;;;;;4900033;29;20088;-77
2022/08/12 03:02:04;;;;;;;4.25;2.83;;;24.60;38.60;;;;;;4899970;29;20128;-77
2022/08/12 03:04:35;;;;;;;3.20;2.38;;;24.50;38.90;;;;;;4900078;29;20378;-77
2022/08/12 03:07:41;;;;;;;3.60;3.05;;;24.50;38.20;;;;;;4899319;29;20431;-77
2022/08/12 03:10:08;;;;;;;3.92;2.33;;;24.40;39.20;;;;;;4901718;29;20039;-77
2022/08/12 03:12:40;;;;;;;3.60;2.70;;;24.40;38.60;;;;;;4938879;28;20084;-77
2022/08/12 03:15:09;;;;;;;3.90;2.95;;;24.40;38.80;;;;;;4903840;29;20052;-77
2022/08/12 03:17:54;;;;;;;4.28;2.65;;;24.40;38.30;;;;;;4918069;29;20017;-77
2022/08/12 03:20:21;;;;;;;4.63;3.20;;;24.40;38.30;;;;;;4918151;29;20500;-77
2022/08/12 03:22:49;;;;;;;3.22;2.67;;;24.40;38.40;;;;;;4903734;29;20025;-77
2022/08/12 03:25:25;;;;;;;4.57;2.92;;;24.40;38.00;;;;;;4903009;29;20024;-77
2022/08/12 03:27:55;;;;;;;4.88;2.70;;;24.40;38.30;;;;;;4903546;29;20025;-77
2022/08/12 03:30:31;;;;;;;2.85;2.55;;;24.30;38.40;;;;;;4903244;29;20400;-77
2022/08/12 03:33:01;;;;;;;3.45;3.00;;;24.30;38.00;;;;;;4903423;29;20017;-77
2022/08/12 03:35:33;;;;;;;3.95;2.80;;;24.40;38.10;;;;;;4903488;29;20083;-77
2022/08/12 03:38:04;;;;;;;5.03;2.72;;;24.30;38.60;;;;;;4917088;29;20064;-77
2022/08/12 04:00:24;;;;;;;3.28;2.30;;;24.20;38.30;;;;;;4902662;29;20050;-76
2022/08/12 04:03:00;;;;;;;3.92;2.85;;;24.10;38.10;;;;;;4916151;29;20135;-76
2022/08/12 04:05:29;;;;;;;4.45;2.63;;;24.10;38.30;;;;;;4903059;29;20039;-77
2022/08/12 04:07:58;;;;;;;3.25;2.70;;;24.00;38.40;;;;;;4903093;29;20048;-77
2022/08/12 04:13:20;;;;;;;3.15;2.70;;;24.00;39.00;;;;;;4940978;29;20079;-77
2022/08/12 04:16:05;;;;;;;4.97;2.40;;;24.00;39.00;;;;;;4939311;29;20055;-77
2022/08/12 04:18:31;;;;;;;3.25;2.55;;;23.90;39.60;;;;;;4922402;29;20040;-76
2022/08/12 04:20:57;;;;;;;5.90;2.70;;;23.80;38.80;;;;;;4902130;29;20033;-76
2022/08/12 04:23:24;;;;;;;3.70;3.10;;;23.90;39.90;;;;;;4902140;29;20036;-77
2022/08/12 04:25:50;;;;;;;3.53;3.20;;;23.80;39.70;;;;;;4916621;29;20124;-77
2022/08/12 04:28:24;;;;;;;8.23;3.17;;;23.80;39.30;;;;;;4902474;29;20037;-77
2022/08/12 04:30:50;;;;;;;3.55;2.92;;;23.80;39.80;;;;;;4902231;29;20130;-77
2022/08/12 04:33:19;;;;;;;4.05;2.60;;;23.80;39.60;;;;;;4901256;29;20084;-76
2022/08/12 04:35:46;;;;;;;4.07;2.42;;;23.80;39.10;;;;;;4902391;29;20031;-79
2022/08/12 04:38:12;;;;;;;4.35;2.97;;;23.80;39.30;;;;;;4902342;29;20032;-77
2022/08/12 04:40:39;;;;;;;4.35;3.17;;;23.70;40.10;;;;;;4901747;29;20020;-77
2022/08/12 04:43:05;;;;;;;4.68;3.10;;;23.70;39.90;;;;;;4901837;29;20120;-77
2022/08/12 04:45:33;;;;;;;7.22;3.50;;;23.70;39.90;;;;;;4902365;29;20124;-77
2022/08/12 04:48:00;;;;;;;5.82;3.00;;;23.60;40.00;;;;;;4902204;29;20420;-77
2022/08/12 04:50:28;;;;;;;4.10;2.80;;;23.70;39.70;;;;;;4916589;29;20033;-79
2022/08/12 04:52:55;;;;;;;2.92;2.47;;;23.70;39.60;;;;;;4902393;29;20031;-79
2022/08/12 04:55:22;;;;;;;4.28;2.92;;;23.70;39.10;;;;;;4901880;29;20031;-79
2022/08/12 04:57:48;;;;;;;6.88;3.20;;;23.70;39.10;;;;;;4901549;29;20025;-80
2022/08/12 05:00:15;;;;;;;4.82;2.83;;;23.80;39.00;;;;;;4903500;29;20085;-79
2022/08/12 05:02:41;;;;;;;5.07;2.90;;;23.80;39.20;;;;;;4904439;29;20092;-77
2022/08/12 05:05:19;;;;;;;8.00;2.88;;;23.80;39.10;;;;;;4919581;29;20073;-76
2022/08/12 05:07:47;;;;;;;5.00;3.22;;;23.80;38.80;;;;;;4914107;29;20025;-76
2022/08/12 05:10:13;;;;;;;4.70;2.95;;;23.80;39.10;;;;;;4913244;29;20543;-76
2022/08/12 05:12:43;;;;;;;8.07;2.95;;;23.80;39.20;;;;;;4920644;29;20035;-77
2022/08/12 05:15:12;;;;;;;2.72;2.45;;;23.70;38.60;;;;;;4904119;29;20021;-77
2022/08/12 05:17:41;;;;;;;3.67;2.63;;;23.70;39.10;;;;;;4901679;29;20029;-82
2022/08/12 05:20:10;;;;;;;3.53;3.22;;;23.70;39.10;;;;;;4911589;29;20043;-75
2022/08/12 05:22:37;;;;;;;4.72;2.85;;;23.70;38.50;;;;;;4919267;29;20024;-76
2022/08/12 05:25:05;;;;;;;3.60;3.15;;;23.80;39.00;;;;;;4918610;29;20092;-80
2022/08/12 05:27:32;;;;;;;5.63;2.40;;;23.80;38.50;;;;;;4914141;29;20080;-77
2022/08/12 05:29:58;;;;;;;5.03;3.20;;;23.80;38.10;;;;;;4901290;29;20037;-77
2022/08/12 05:32:24;;;;;;;2.95;2.45;;;23.80;38.20;;;;;;4900747;29;20043;-77
2022/08/12 05:34:52;;;;;;;3.88;2.90;;;23.90;37.90;;;;;;4901132;29;20059;-77
2022/08/12 05:37:19;;;;;;;5.03;3.13;;;23.90;37.80;;;;;;4911434;29;20020;-77
2022/08/12 05:39:45;;;;;;;2.90;2.60;;;23.90;37.80;;;;;;4916075;29;20024;-77
2022/08/12 05:42:10;;;;;;;4.95;2.47;;;23.90;37.70;;;;;;4910504;29;20033;-77
2022/08/12 05:44:36;;;;;;;4.57;2.60;;;24.00;37.70;;;;;;4901150;29;20063;-77
2022/08/12 05:47:03;;;;;;;4.43;2.70;;;23.90;37.60;;;;;;4899956;29;20028;-78
2022/08/12 05:49:29;;;;;;;3.83;2.80;;;24.00;37.70;;;;;;4900721;29;20035;-78
2022/08/12 05:51:56;;;;;;;4.25;3.25;;;24.00;37.50;;;;;;4900886;29;20028;-78
2022/08/12 05:54:22;;;;;;;3.67;2.60;;;24.10;37.60;;;;;;4900632;29;20025;-81
2022/08/12 05:56:47;;;;;;;4.00;2.50;;;24.00;37.70;;;;;;4914150;29;20397;-77
2022/08/12 05:59:13;;;;;;;4.63;2.53;;;24.10;37.70;;;;;;4916471;29;20040;-81
2022/08/12 06:01:41;;;;;;;5.35;2.80;;;24.10;37.60;;;;;;4915437;29;20079;-82
2022/08/12 06:04:08;;;;;;;4.80;2.80;;;24.10;37.40;;;;;;4918902;29;20032;-83
2022/08/12 06:06:37;;;;;;;3.95;2.72;;;24.20;37.40;;;;;;4915942;29;20027;-81
2022/08/12 06:09:03;;;;;;;4.95;2.58;;;24.20;37.40;;;;;;4917858;29;20449;-83
2022/08/12 06:11:29;;;;;;;3.13;2.30;;;24.20;37.30;;;;;;4916585;29;20522;-82
2022/08/12 06:13:57;;;;;;;6.93;2.92;;;24.30;37.60;;;;;;4918880;29;20028;-80
2022/08/12 06:16:24;;;;;;;3.78;2.88;;;24.30;37.40;;;;;;4918252;29;20024;-88
2022/08/12 06:18:50;;;;;;;4.13;2.55;;;24.30;37.40;;;;;;4915470;29;20032;-83
2022/08/12 06:21:20;;;;;;;3.15;2.67;;;24.30;37.50;;;;;;4915746;29;20456;-78
2022/08/12 06:23:46;;;;;;;4.68;2.40;;;24.40;37.30;;;;;;4918442;29;20586;-78
2022/08/12 06:26:15;;;;;;;3.92;2.45;;;24.40;37.50;;;;;;4916391;29;20028;-79
2022/08/12 06:28:49;;;;;;;5.43;2.80;;;24.40;37.10;;;;;;4918163;29;20092;-78
2022/08/12 06:31:19;;;;;;;5.57;2.85;;;24.40;37.30;;;;;;4917996;29;20090;-78
2022/08/12 06:33:47;;;;;;;2.83;2.10;;;24.50;37.10;;;;;;4930382;29;20012;-78
2022/08/12 06:36:15;;;;;;;5.03;2.45;;;24.50;37.50;;;;;;4917133;29;20039;-78
2022/08/12 06:38:41;;;;;;;5.55;2.65;;;24.60;37.50;;;;;;4917870;29;20027;-78
2022/08/12 06:43:54;;;;;;;3.92;2.40;;;24.60;37.10;;;;;;4915800;29;20405;-78
2022/08/12 06:46:21;;;;;;;4.50;2.40;;;24.70;37.20;;;;;;4917779;29;20036;-78
2022/08/12 06:48:56;;;;;;;4.45;2.97;;;24.70;37.50;;;;;;4915075;29;20099;-78
2022/08/12 06:51:22;;;;;;;5.80;2.45;;;24.70;37.50;;;;;;4917869;29;20032;-78
2022/08/12 06:53:48;;;;;;;5.32;2.60;;;24.70;37.40;;;;;;4914720;29;20052;-77
2022/08/12 06:56:15;;;;;;;5.20;2.65;;;24.80;37.30;;;;;;4909060;29;20059;-78
2022/08/12 06:58:43;;;;;;;2.75;2.20;;;24.90;37.30;;;;;;4906113;29;20043;-78
2022/08/12 07:01:09;;;;;;;4.50;2.33;;;24.80;37.40;;;;;;4918666;29;20040;-78
2022/08/12 07:03:35;;;;;;;4.22;2.85;;;24.90;37.20;;;;;;4908008;29;20059;-78
2022/08/12 07:06:09;;;;;;;6.70;2.38;;;24.90;37.70;;;;;;4909475;29;20031;-78
2022/08/12 07:08:35;;;;;;;3.85;2.88;;;25.00;37.50;;;;;;4909329;29;20040;-70
2022/08/12 07:11:03;;;;;;;4.80;2.58;;;25.00;37.40;;;;;;4901198;29;20036;-74
2022/08/12 07:13:41;;;;;;;4.40;2.53;;;25.10;38.80;;;;;;4893950;29;20067;-73
2022/08/12 07:16:08;;;;;;;4.20;2.78;;;25.20;37.60;;;;;;4906370;29;20044;-73
2022/08/12 07:18:34;;;;;;;2.80;2.47;;;25.30;37.60;;;;;;4925252;29;20174;-73
2022/08/12 07:21:02;;;;;;;3.85;2.65;;;25.70;38.40;;;;;;4909269;29;20740;-73
2022/08/12 07:23:30;;;;;;;4.15;2.67;;;26.30;37.00;;;;;;4906886;29;20066;-72
2022/08/12 07:26:00;;;;;;;5.00;2.53;;;27.80;34.70;;;;;;4910224;29;20039;-74
2022/08/12 07:28:29;;;;;;;2.80;2.47;;;30.40;31.60;;;;;;4909734;29;20036;-75
2022/08/12 07:30:56;;;;;;;4.60;2.50;;;32.00;28.60;;;;;;4896647;29;20854;-72
2022/08/12 07:33:26;;;;;;;5.40;2.58;;;32.80;27.30;;;;;;4906808;29;20077;-72
2022/08/12 07:35:53;;;;;;;4.28;2.78;;;32.30;28.30;;;;;;4892897;29;20028;-71
2022/08/12 07:38:26;;;;;;;4.60;2.67;;;30.90;29.70;;;;;;4892783;29;20031;-73
2022/08/12 07:41:25;;;;;;;3.65;2.63;;;29.90;31.20;;;;;;4893698;29;20155;-72
2022/08/12 07:43:55;;;;;;;3.00;2.30;;;29.60;30.60;;;;;;4908491;29;20032;-71
2022/08/12 07:46:24;;;;;;;5.22;3.05;;;30.10;31.00;;;;;;4910811;29;20272;-71
2022/08/12 07:48:55;;;;;;;6.07;2.90;;;31.30;29.00;;;;;;4913303;29;20032;-71
2022/08/12 07:51:23;;;;;;;2.63;2.38;;;32.30;28.10;;;;;;4914165;29;20038;-77
2022/08/12 07:53:54;;;;;;;4.57;2.20;;;33.90;26.20;;;;;;4910463;29;20032;-79
2022/08/12 07:56:20;;;;;;;3.63;2.30;;;36.30;23.90;;;;;;4912275;29;20028;-79
2022/08/12 07:58:46;;;;;;;5.68;2.40;;;38.00;22.50;;;;;;4916844;29;20040;-79
2022/08/12 08:01:16;;;;;;;3.55;1.98;;;39.30;21.20;;;;;;4920465;29;20063;-79
2022/08/12 08:06:31;;;;;;;3.22;2.22;;;41.10;19.00;;;;;;4918558;29;20032;-79
2022/08/12 08:08:58;;;;;;;4.35;2.40;;;41.90;18.50;;;;;;4918534;29;20495;-78
2022/08/12 08:14:09;;;;;;;2.78;1.98;;;42.80;17.90;;;;;;4919320;29;20035;-79
2022/08/12 08:16:36;;;;;;;2.72;2.42;;;43.10;17.20;;;;;;4917385;29;20039;-80
2022/08/12 08:19:03;;;;;;;4.63;2.37;;;43.30;17.60;;;;;;4920186;29;20028;-79
2022/08/12 08:21:32;;;;;;;3.60;2.50;;;43.50;17.40;;;;;;4903061;29;20062;-80
2022/08/12 08:24:13;;;;;;;3.78;1.80;;;43.60;17.20;;;;;;4910786;29;20123;-79
2022/08/12 08:26:42;;;;;;;3.38;1.92;;;43.80;16.90;;;;;;4909460;29;20036;-79
2022/08/12 08:29:08;;;;;;;5.50;1.90;;;43.90;17.00;;;;;;4920452;29;20059;-79
2022/08/12 08:31:34;;;;;;;3.55;1.98;;;44.10;16.80;;;;;;4915935;29;20036;-79
2022/08/12 08:34:00;;;;;;;5.53;2.60;;;44.00;17.10;;;;;;4912956;29;20032;-79
2022/08/12 08:36:26;;;;;;;4.07;2.45;;;43.90;17.00;;;;;;4921117;29;20020;-79
2022/08/12 08:38:52;;;;;;;7.78;2.58;;;44.00;17.30;;;;;;4918246;29;20024;-79
2022/08/12 08:44:03;;;;;;;8.13;2.38;;;43.40;16.80;;;;;;4901672;29;20108;-77
2022/08/12 08:46:28;;;;;;;5.90;2.55;;;42.70;17.90;;;;;;4902445;29;20033;-78
2022/08/12 08:48:54;;;;;;;7.25;1.70;;;41.80;18.50;;;;;;4916448;29;20039;-78
2022/08/12 08:51:23;;;;;;;3.75;1.88;;;40.70;18.50;;;;;;4915240;29;20072;-78
2022/08/12 08:53:48;;;;;;;;;;;40.10;19.30;;;;;;4915053;29;20037;-78
2022/08/12 08:56:14;;;;;;;6.68;2.35;;;40.00;19.20;;;;;;4917507;29;20453;-78
2022/08/12 08:58:42;;;;;;;5.32;2.53;;;39.90;19.20;;;;;;4920712;29;20559;-78
2022/08/12 09:01:08;;;;;;;;;;;40.40;19.20;;;;;;4935579;29;20039;-79
2022/08/12 09:03:34;;;;;;;4.95;2.15;;;41.00;19.10;;;;;;4903402;29;19924;-79
2022/08/12 09:06:02;;;;;;;4.72;2.22;;;41.50;17.60;;;;;;4911898;29;20043;-79
2022/08/12 09:08:28;;;;;;;3.92;1.98;;;42.30;17.70;;;;;;4904108;29;20040;-79
2022/08/12 09:13:26;;;;;;;3.78;1.90;;;42.70;16.50;;;;;;4926238;29;20029;-79
2022/08/12 09:13:43;;;;;;;2.78;2.50;;;42.80;16.90;;;;;;4919165;29;20068;-79
2022/08/12 09:16:09;;;;;;;4.40;2.58;;;42.60;17.00;;;;;;4917757;29;20084;-79
2022/08/12 09:18:34;;;;;;;2.45;2.00;;;42.00;16.60;;;;;;4919407;29;20032;-79
2022/08/12 09:21:02;;;;;;;4.80;2.20;;;41.40;17.70;;;;;;4916278;29;20032;-79
2022/08/12 09:23:28;;;;;;;2.80;2.03;;;40.80;18.20;;;;;;4919311;29;20024;-78
2022/08/12 09:25:53;;;;;;;3.80;2.30;;;40.30;18.30;;;;;;4918222;29;20503;-80
2022/08/12 09:28:24;;;;;;;8.02;2.70;;;40.00;18.20;;;;;;4919025;29;20107;-79
2022/08/12 09:30:52;;;;;;;2.92;1.90;;;39.90;17.20;;;;;;4919718;29;20067;-78
2022/08/12 09:33:18;;;;;;;4.18;2.10;;;40.80;17.90;;;;;;4917481;29;20020;-78
2022/08/12 09:35:44;;;;;;;3.08;2.00;;;41.80;16.80;;;;;;4910668;29;20036;-78
2022/08/12 09:38:16;;;;;;;6.18;1.70;;;42.90;16.30;;;;;;4900865;29;20575;-78
2022/08/12 09:40:43;;;;;;;4.07;2.17;;;43.80;15.60;;;;;;4899749;29;20033;-78
2022/08/12 09:45:53;;;;;;;4.25;1.92;;;45.10;14.80;;;;;;4901235;29;20420;-78
2022/08/12 09:48:19;;;;;;;4.65;1.80;;;45.50;14.30;;;;;;4910682;29;20016;-80
2022/08/12 09:50:48;;;;;;;5.85;2.05;;;45.70;13.90;;;;;;4918015;29;20028;-80
2022/08/12 09:53:15;;;;;;;2.25;1.90;;;45.50;13.70;;;;;;4916928;29;20492;-80
2022/08/12 09:55:51;;;;;;;8.45;6.90;;;45.30;13.10;;;;;;4914787;29;20036;-79
2022/08/12 09:58:27;;;;;;;3.25;1.73;;;45.30;13.30;;;;;;4917149;29;20464;-79
2022/08/12 10:01:05;;;;;;;4.22;2.00;;;45.40;13.90;;;;;;4915809;29;20107;-79
2022/08/12 10:03:35;;;;;;;2.47;2.00;;;45.70;13.60;;;;;;4919256;29;20594;-80
2022/08/12 10:06:04;;;;;;;3.22;1.90;;;45.80;13.70;;;;;;4917386;29;20020;-80
2022/08/12 10:08:30;;;;;;;2.25;1.95;;;46.10;13.80;;;;;;4918869;29;20598;-79
2022/08/12 10:13:43;;;;;;;2.60;1.92;;;46.10;12.80;;;;;;4914254;29;20506;-78
2022/08/12 10:16:18;;;;;;;4.13;1.97;;;45.90;13.40;;;;;;4917377;29;20036;-80
2022/08/12 10:18:55;;;;;;;2.47;1.75;;;45.60;13.00;;;;;;4916060;29;20032;-79
2022/08/12 10:21:22;;;;;;;3.03;2.25;;;44.60;13.10;;;;;;4914540;29;20024;-78
2022/08/12 10:23:49;;;;;;;2.50;2.10;;;44.90;13.70;;;;;;4913386;29;20070;-79
2022/08/12 10:31:52;;;;;;;6.07;2.88;;;44.30;13.20;;;;;;4897304;29;20061;-80
2022/08/12 10:34:21;;;;;;;2.40;1.85;;;43.50;14.10;;;;;;4896827;29;20476;-80
2022/08/12 10:36:49;;;;;;;2.72;2.00;;;42.70;14.20;;;;;;4896955;29;20576;-80
2022/08/12 10:39:17;;;;;;;3.47;1.77;;;41.00;14.80;;;;;;4897164;29;20548;-79
2022/08/12 10:44:32;;;;;;;5.05;2.00;;;40.10;16.90;;;;;;4901553;29;20074;-79
2022/08/12 10:46:58;;;;;;;3.80;2.10;;;39.80;17.00;;;;;;4906954;29;20033;-79
2022/08/12 10:49:30;;;;;;;2.53;1.80;;;39.40;17.10;;;;;;4916911;29;20120;-80
2022/08/12 10:51:57;;;;;;;4.43;2.38;;;39.10;17.10;;;;;;4917763;29;20031;-79
2022/08/12 10:54:26;;;;;;;2.65;2.05;;;38.70;17.70;;;;;;4917104;29;20042;-79
2022/08/12 10:56:59;;;;;;;3.67;2.00;;;38.20;16.90;;;;;;4921398;29;20377;-78
2022/08/12 10:59:28;;;;;;;4.32;2.13;;;37.70;17.60;;;;;;4921511;29;20496;-76
2022/08/12 11:01:56;;;;;;;3.53;2.03;;;37.40;18.50;;;;;;4918934;29;20052;-76
2022/08/12 11:04:23;;;;;;;3.92;2.30;;;37.60;18.60;;;;;;4910416;29;20039;-78
2022/08/12 11:06:52;;;;;;;4.97;3.15;;;37.30;18.70;;;;;;4902520;29;20032;-77
2022/08/12 11:09:23;;;;;;;3.65;2.13;;;37.40;18.50;;;;;;4896894;29;20028;-77
2022/08/12 11:11:49;;;;;;;3.35;2.17;;;37.40;18.80;;;;;;4913207;29;20079;-78
2022/08/12 11:14:17;;;;;;;5.18;2.20;;;37.50;19.10;;;;;;4916080;29;20024;-78
2022/08/12 11:16:44;;;;;;;7.82;2.15;;;37.40;18.70;;;;;;4899952;29;20029;-78
2022/08/12 11:19:13;;;;;;;3.35;1.73;;;37.30;19.10;;;;;;4899973;29;20024;-78
2022/08/12 11:21:39;;;;;;;2.95;2.10;;;37.30;19.20;;;;;;4899606;29;20029;-79
2022/08/12 11:24:05;;;;;;;2.60;2.10;;;37.10;18.40;;;;;;4899745;29;20051;-80
2022/08/12 11:26:31;;;;;;;3.78;1.98;;;37.10;19.20;;;;;;4909601;29;20172;-79
2022/08/12 11:28:57;;;;;;;3.45;2.00;;;36.80;19.10;;;;;;4914434;29;20067;-83
2022/08/12 11:31:23;;;;;;;2.72;1.98;;;36.70;19.30;;;;;;4918636;29;20479;-79
2022/08/12 11:33:49;;;;;;;2.95;2.10;;;36.80;19.10;;;;;;4916954;29;20036;-78
2022/08/12 11:36:16;;;;;;;4.60;2.30;;;36.80;18.60;;;;;;4902228;29;20024;-77
2022/08/12 11:38:42;;;;;;;2.53;2.20;;;36.80;18.90;;;;;;4903431;29;20032;-81
2022/08/12 11:41:07;;;;;;;4.28;2.05;;;36.90;19.10;;;;;;4917877;29;20039;-88
2022/08/12 11:43:33;;;;;;;3.65;1.98;;;36.90;19.00;;;;;;4902250;29;20697;-80
2022/08/12 11:45:59;;;;;;;5.55;2.17;;;36.90;19.20;;;;;;4903107;29;20103;-77
2022/08/12 11:48:25;;;;;;;3.35;2.55;;;36.90;19.10;;;;;;4909811;29;20710;-78
2022/08/12 11:50:50;;;;;;;3.40;1.80;;;36.80;19.00;;;;;;4915305;29;20036;-79
2022/08/12 11:53:16;;;;;;;2.92;2.20;;;36.80;19.20;;;;;;4918302;29;20036;-79
2022/08/12 11:55:42;;;;;;;2.50;2.10;;;36.90;19.00;;;;;;4921820;29;20027;-79
2022/08/12 11:58:08;;;;;;;3.00;2.28;;;36.90;18.90;;;;;;4920435;29;20036;-80
2022/08/12 12:00:33;;;;;;;4.13;2.28;;;36.90;18.70;;;;;;4915855;29;20103;-78
2022/08/12 12:02:59;;;;;;;3.28;2.05;;;36.80;18.70;;;;;;4919664;29;20063;-78
2022/08/12 12:05:25;;;;;;;2.47;2.28;;;36.80;19.40;;;;;;4908847;29;20036;-79
2022/08/12 12:07:50;;;;;;;3.10;2.45;;;36.60;18.80;;;;;;4902451;29;20040;-79
2022/08/12 12:10:19;;;;;;;3.95;2.00;;;36.50;19.60;;;;;;4922186;29;20038;-78
2022/08/12 12:12:46;;;;;;;4.20;2.30;;;36.70;19.50;;;;;;4917466;29;20032;-78
2022/08/12 12:15:12;;;;;;;4.18;2.03;;;36.60;19.20;;;;;;4902735;29;20457;-77
2022/08/12 12:17:39;;;;;;;3.53;2.30;;;36.80;19.10;;;;;;4916670;29;20025;-78
2022/08/12 12:20:10;;;;;;;3.38;1.92;;;36.80;18.80;;;;;;4915212;29;20032;-78
2022/08/12 12:22:38;;;;;;;3.15;2.17;;;36.50;18.80;;;;;;4913655;29;20436;-78
2022/08/12 12:25:04;;;;;;;2.53;2.15;;;36.40;18.70;;;;;;4916377;29;20423;-78
2022/08/12 12:28:02;;;;;;;4.15;2.20;;;36.50;19.00;;;;;;4919890;29;20056;-78
2022/08/12 12:30:28;;;;;;;2.65;2.15;;;36.20;18.50;;;;;;4890928;29;20544;-78
2022/08/12 12:32:54;;;;;;;4.00;2.15;;;36.30;18.80;;;;;;4902089;29;20035;-78
2022/08/12 12:35:20;;;;;;;3.83;2.30;;;36.30;18.90;;;;;;4901772;29;20560;-79
2022/08/12 12:37:59;;;;;;;2.47;2.20;;;36.30;18.90;;;;;;4901974;29;20025;-78
2022/08/12 12:40:26;;;;;;;1.98;1.77;;;36.50;19.40;;;;;;4902166;29;20057;-78
2022/08/12 12:42:52;;;;;;;5.25;2.40;;;36.20;19.00;;;;;;4915039;29;20164;-78
2022/08/12 12:45:19;;;;;;;3.95;2.20;;;36.10;19.70;;;;;;4915726;29;20131;-79
2022/08/12 12:47:58;;;;;;;4.20;2.30;;;36.30;19.70;;;;;;4901775;29;20772;-79
2022/08/12 12:50:25;;;;;;;3.05;2.70;;;36.40;19.60;;;;;;4916998;29;20037;-79
2022/08/12 12:52:51;;;;;;;2.83;2.17;;;36.40;18.50;;;;;;4918779;29;20032;-79
2022/08/12 12:55:30;;;;;;;2.88;2.40;;;36.00;18.90;;;;;;4910557;29;20037;-80
2022/08/12 12:58:00;;;;;;;4.75;2.17;;;36.10;19.10;;;;;;4902509;29;20033;-80
2022/08/12 13:00:30;;;;;;;2.10;1.85;;;36.20;19.40;;;;;;4916361;29;20048;-79
2022/08/12 13:02:55;;;;;;;4.43;2.25;;;36.30;19.00;;;;;;4919634;29;20058;-79
2022/08/12 13:05:24;;;;;;;3.00;2.30;;;36.00;19.10;;;;;;4916108;29;20777;-80
2022/08/12 13:08:00;;;;;;;2.80;2.45;;;36.00;19.30;;;;;;4903495;29;20505;-79
2022/08/12 13:10:30;;;;;;;3.60;2.20;;;36.20;20.00;;;;;;4914933;29;20084;-80
2022/08/12 13:12:56;;;;;;;3.22;2.20;;;36.40;19.80;;;;;;4918238;29;20047;-80
2022/08/12 13:15:22;;;;;;;2.83;2.08;;;36.60;19.40;;;;;;4921146;29;20108;-79
2022/08/12 13:17:55;;;;;;;4.85;1.98;;;36.70;19.20;;;;;;4919737;29;20028;-79
2022/08/12 13:20:22;;;;;;;4.63;2.33;;;36.70;18.80;;;;;;4914518;29;20028;-79
2022/08/12 13:22:49;;;;;;;4.35;2.45;;;36.50;19.10;;;;;;4918234;29;20035;-81
2022/08/12 13:25:18;;;;;;;3.30;2.35;;;36.30;19.60;;;;;;4921268;29;20040;-81
2022/08/12 13:27:46;;;;;;;;;;;36.30;19.60;;;;;;4919999;29;20488;-80
2022/08/12 13:30:19;;;;;;;2.63;2.38;;;36.40;19.50;;;;;;4918417;29;19962;-80
2022/08/12 13:32:54;;;;;;;2.35;1.88;;;36.40;19.50;;;;;;4916798;29;20032;-80
2022/08/12 13:35:20;;;;;;;3.08;2.30;;;36.50;19.50;;;;;;4919542;29;20067;-79
2022/08/12 13:38:09;;;;;;;2.25;1.98;;;36.50;19.80;;;;;;4919931;29;20691;-80
2022/08/12 13:40:35;;;;;;;5.60;2.97;;;36.50;19.70;;;;;;4918918;29;20031;-80
2022/08/12 13:43:05;;;;;;;3.08;2.38;;;36.40;19.40;;;;;;4916049;29;20071;-80
2022/08/12 13:45:32;;;;;;;3.22;2.45;;;36.50;19.70;;;;;;4919626;29;20031;-80
2022/08/12 13:48:00;;;;;;;2.58;2.03;;;36.40;19.50;;;;;;4918755;29;20043;-81
2022/08/12 13:50:32;;;;;;;5.85;2.97;;;36.50;19.30;;;;;;4917719;29;20051;-80
2022/08/12 13:53:00;;;;;;;3.17;2.58;;;36.60;19.50;;;;;;4919916;29;20031;-80
2022/08/12 13:55:27;;;;;;;4.70;2.47;;;36.60;19.20;;;;;;4920724;29;20032;-80
2022/08/12 13:57:54;;;;;;;5.03;2.47;;;36.70;18.90;;;;;;4919390;29;20863;-80
2022/08/12 14:00:21;;;;;;;4.80;2.22;;;36.40;18.70;;;;;;4917818;29;20024;-81
2022/08/12 14:02:51;;;;;;;3.58;2.22;;;36.40;19.30;;;;;;4919709;29;20054;-81
2022/08/12 14:05:18;;;;;;;3.28;2.10;;;36.60;18.90;;;;;;4918003;29;20468;-79
2022/08/12 14:08:00;;;;;;;3.28;2.00;;;36.70;19.20;;;;;;4922850;29;20036;-80
2022/08/12 14:10:55;;;;;;;3.33;2.10;;;36.70;19.30;;;;;;4922349;29;20396;-80
2022/08/12 14:13:26;;;;;;;4.13;2.08;;;36.60;18.30;;;;;;4918920;29;20032;-80
2022/08/12 14:15:57;;;;;;;3.42;2.00;;;36.60;18.20;;;;;;4917310;29;20043;-80
2022/08/12 14:18:24;;;;;;;3.33;2.13;;;36.70;19.00;;;;;;4933934;29;20130;-80
2022/08/12 14:21:00;;;;;;;3.65;2.17;;;36.60;18.90;;;;;;4935576;29;20404;-80
2022/08/12 14:23:34;;;;;;;3.15;2.30;;;36.50;18.70;;;;;;4935906;29;20043;-79
2022/08/12 14:26:03;;;;;;;5.07;2.38;;;36.60;19.00;;;;;;4908948;29;20012;-79
2022/08/12 14:28:31;;;;;;;5.57;2.08;;;36.60;18.50;;;;;;4920437;29;20055;-81
2022/08/12 14:31:05;;;;;;;5.10;2.20;;;36.60;18.70;;;;;;4914482;29;20033;-82
2022/08/12 14:33:39;;;;;;;4.45;2.78;;;36.70;19.00;;;;;;4898563;29;20518;-84
2022/08/12 14:36:07;;;;;;;2.72;1.98;;;36.70;18.90;;;;;;4899934;29;20563;-79
2022/08/12 14:38:40;;;;;;;4.40;2.07;;;36.80;18.80;;;;;;4902902;29;20079;-80
2022/08/12 14:41:08;;;;;;;4.30;2.35;;;36.70;19.20;;;;;;4915126;29;20284;-81
2022/08/12 14:43:38;;;;;;;2.85;2.13;;;36.70;19.10;;;;;;4917165;29;20036;-81